This is the latest recevied weather packets stored in our database for station/object HS5NMF. If no packets are shown the sender has not sent any weather packets the latest 10 day(s).
| Time | Temp. | Humidity | Pressure | Rain* | Wind** | Luminosity | Snow |
|---|---|---|---|---|---|---|---|
| 1777922574 | 26.67° C | 96% | 979 hPa | - | - | 0 W/m² | - |
| 1777922251 | 27.22° C | 93% | 979 hPa | - | - | 0 W/m² | - |
| 1777921927 | 27.78° C | 89% | 979 hPa | - | - | 0 W/m² | - |
| 1777921604 | 27.78° C | 89% | 979 hPa | - | - | 0 W/m² | - |
| 1777921280 | 27.78° C | 92% | 979 hPa | - | - | 0 W/m² | - |
| 1777920957 | 27.78° C | 92% | 979 hPa | - | - | 0 W/m² | - |
| 1777920634 | 27.78° C | 91% | 979 hPa | - | - | 0 W/m² | - |
| 1777920309 | 27.78° C | 93% | 979 hPa | - | - | 0 W/m² | - |
| 1777919986 | 28.33° C | 89% | 979 hPa | - | - | 0 W/m² | - |
| 1777919663 | 28.33° C | 90% | 979 hPa | - | - | 0 W/m² | - |
| 1777919339 | 27.22° C | 97% | 980 hPa | - | - | 0 W/m² | - |
| 1777919017 | 27.22° C | 99% | 980 hPa | - | - | 0 W/m² | - |
| 1777918694 | 26.67° C | 99% | 980 hPa | - | - | 0 W/m² | - |
| 1777918371 | 26.67° C | 99% | 980 hPa | - | - | 0 W/m² | - |
| 1777918047 | 27.22° C | 98% | 980 hPa | - | - | 0 W/m² | - |
| 1777917724 | 26.67° C | 99% | 980 hPa | - | - | 0 W/m² | - |
| 1777917401 | 27.22° C | 98% | 980 hPa | - | - | 0 W/m² | - |
| 1777917081 | 27.22° C | 98% | 980 hPa | - | - | 0 W/m² | - |
| 1777916755 | 28.33° C | 93% | 980 hPa | - | - | 0 W/m² | - |
| 1777916431 | 28.89° C | 87% | 980 hPa | - | - | 0 W/m² | - |
| 1777916109 | 28.33° C | 88% | 980 hPa | - | - | 0 W/m² | - |
| 1777915786 | 29.44° C | 83% | 980 hPa | - | - | 0 W/m² | - |
| 1777915463 | 28.33° C | 88% | 980 hPa | - | - | 0 W/m² | - |
| 1777915141 | 28.89° C | 85% | 980 hPa | - | - | 0 W/m² | - |
| 1777914816 | 28.89° C | 84% | 980 hPa | - | - | 0 W/m² | - |
* Rain since midnight (hover to see other rain measurements)
** Current wind speed in m/s (hover to see current wind gust speed)